Ginga — JJ4054 — position and weather

sailwx.info

Track history (hours):
 
Tides and Currents Weather Stations Pressure Air Temp Water Temp Dewpoint Dewpoint Depression Visibility Wind Speed Wind Dir Waves Ship Positions

Ginga

Last reported at 2014-Jul-30 05:29 UTC. Time now 2014-Jul-30 11:11 UTC.
Position N 34°39' E 135°09'.

Length 28 m; draft 1.6 m.

Type: Other ship. MMSI: 431301704.

Date/timePositionNaut miles runAvg speedWind from/ knotsBaromVisibWave heightAir tempDewpointWater temp
2014-Jul-30 05:29N 34°39' E 135°09'9 9.7
2014-Jul-30 04:32N 34°30' E 135°06'5 2.6
2014-Jul-30 02:29N 34°25' E 135°04'1313.9
2014-Jul-30 01:33N 34°33' E 135°17'6 5.0
2014-Jul-30 00:27N 34°33' E 135°24'9 9.5
2014-Jul-29 23:33N 34°34' E 135°13'9 3.8
2014-Jul-29 21:06N 34°38' E 135°03'5 8.2
2014-Jul-29 20:33N 34°37' E 134°58'8 8.0
2014-Jul-29 19:33N 34°35' E 135°07'5 4.6
2014-Jul-29 18:33N 34°39' E 135°09'5 0.3
2014-Jul-29 02:33N 34°36' E 135°14'8 8.2
2014-Jul-29 01:32N 34°33' E 135°24'6 5.9
2014-Jul-29 00:33N 34°33' E 135°17'1512.6
2014-Jul-28 23:20N 34°22' E 135°04'1311.7
2014-Jul-28 22:16N 34°11' E 134°58'1311.3
2014-Jul-28 21:09N 34°23' E 134°59'1016.2
2014-Jul-28 20:33N 34°32' E 135°04'8 8.1
2014-Jul-28 19:34N 34°39' E 135°09'0 0.0
2014-Jul-28 05:20N 34°39' E 135°09'0 0.0
2014-Jul-28 01:08N 34°39' E 135°09'6 9.9
2014-Jul-28 00:33N 34°37' E 135°03'1 1.5
2014-Jul-27 23:33N 34°36' E 135°04'2 0.5
2014-Jul-27 20:25N 34°37' E 135°03'1 1.3
2014-Jul-27 19:33N 34°37' E 135°02'6 6.1
2014-Jul-27 18:33N 34°34' E 135°09'5 5.0
2014-Jul-27 17:33N 34°39' E 135°09'  
Track history (hours):
 
Tides and Currents Weather Stations Pressure Air Temp Water Temp Dewpoint Dewpoint Depression Visibility Wind Speed Wind Dir Waves Ship Positions

Ginga

Last reported at 2014-Jul-30 05:29 UTC. Time now 2014-Jul-30 11:11 UTC.
Position N 34°39' E 135°09'.

Length 28 m; draft 1.6 m.

Type: Other ship. MMSI: 431301704.

Date/timePositionNaut miles runAvg speedWind from/ knotsBaromVisibWave heightAir tempDewpointWater temp
2014-Jul-30 05:29N 34°39' E 135°09'9 9.7
2014-Jul-30 04:32N 34°30' E 135°06'5 2.6
2014-Jul-30 02:29N 34°25' E 135°04'1313.9
2014-Jul-30 01:33N 34°33' E 135°17'6 5.0
2014-Jul-30 00:27N 34°33' E 135°24'9 9.5
2014-Jul-29 23:33N 34°34' E 135°13'9 3.8
2014-Jul-29 21:06N 34°38' E 135°03'5 8.2
2014-Jul-29 20:33N 34°37' E 134°58'8 8.0
2014-Jul-29 19:33N 34°35' E 135°07'5 4.6
2014-Jul-29 18:33N 34°39' E 135°09'5 0.3
2014-Jul-29 02:33N 34°36' E 135°14'8 8.2
2014-Jul-29 01:32N 34°33' E 135°24'6 5.9
2014-Jul-29 00:33N 34°33' E 135°17'1512.6
2014-Jul-28 23:20N 34°22' E 135°04'1311.7
2014-Jul-28 22:16N 34°11' E 134°58'1311.3
2014-Jul-28 21:09N 34°23' E 134°59'1016.2
2014-Jul-28 20:33N 34°32' E 135°04'8 8.1
2014-Jul-28 19:34N 34°39' E 135°09'0 0.0
2014-Jul-28 05:20N 34°39' E 135°09'0 0.0
2014-Jul-28 01:08N 34°39' E 135°09'6 9.9
2014-Jul-28 00:33N 34°37' E 135°03'1 1.5
2014-Jul-27 23:33N 34°36' E 135°04'2 0.5
2014-Jul-27 20:25N 34°37' E 135°03'1 1.3
2014-Jul-27 19:33N 34°37' E 135°02'6 6.1
2014-Jul-27 18:33N 34°34' E 135°09'5 5.0
2014-Jul-27 17:33N 34°39' E 135°09'  

Dump ship's entire track history